| time (UTC) | temp F | wind direction | speed MPH | gust MPH | rain 1hr in | rain 24hr in | rain mn in | humidity % | barometer mb |
| 20260502233049 | 43 | 0 | 0.0 | 1.0 | 0.00 | 0.09 | 0.09 | 70 | 1017.2 |
| 20260502231549 | 43 | 0 | 0.0 | 2.0 | 0.00 | 0.09 | 0.09 | 68 | 1017.2 |
| 20260502230057 | 44 | 0 | 0.0 | 3.0 | 0.00 | 0.09 | 0.09 | 66 | 1017.2 |
| 20260502224547 | 44 | 360 | 0.0 | 4.0 | 0.00 | 0.09 | 0.09 | 67 | 1017.2 |
| 20260502223101 | 44 | 5 | 0.0 | 4.0 | 0.00 | 0.09 | 0.09 | 69 | 1017.2 |
| 20260502221551 | 44 | 339 | 1.0 | 5.0 | 0.00 | 0.09 | 0.09 | 66 | 1017.1 |
| 20260502220100 | 44 | 355 | 2.0 | 5.0 | 0.00 | 0.09 | 0.09 | 66 | 1017.1 |
| 20260502214550 | 44 | 355 | 1.0 | 5.0 | 0.00 | 0.09 | 0.09 | 63 | 1017.2 |
| 20260502213052 | 44 | 352 | 2.0 | 8.0 | 0.00 | 0.09 | 0.09 | 64 | 1017.0 |
| 20260502211553 | 45 | 348 | 2.0 | 8.0 | 0.00 | 0.09 | 0.09 | 62 | 1017.0 |
| 20260502210055 | 45 | 355 | 2.0 | 6.0 | 0.00 | 0.09 | 0.09 | 65 | 1016.9 |
| 20260502204558 | 44 | 343 | 1.0 | 6.0 | 0.00 | 0.09 | 0.09 | 65 | 1016.9 |
| 20260502203118 | 44 | 17 | 1.0 | 9.0 | 0.00 | 0.09 | 0.09 | 69 | 1016.9 |
| 20260502201604 | 45 | 348 | 4.0 | 11.0 | 0.00 | 0.09 | 0.09 | 69 | 1016.9 |
| 20260502200059 | 46 | 342 | 2.0 | 10.0 | 0.00 | 0.09 | 0.09 | 66 | 1016.9 |
| 20260502194555 | 45 | 0 | 3.0 | 9.0 | 0.00 | 0.09 | 0.09 | 63 | 1017.1 |
| 20260502193109 | 45 | 347 | 2.0 | 6.0 | 0.00 | 0.09 | 0.09 | 63 | 1017.2 |
| 20260502191551 | 46 | 315 | 2.0 | 9.0 | 0.00 | 0.09 | 0.09 | 64 | 1017.3 |
| 20260502190052 | 46 | 343 | 4.0 | 11.0 | 0.00 | 0.09 | 0.09 | 61 | 1017.3 |
| 20260502184555 | 46 | 352 | 6.0 | 12.0 | 0.00 | 0.10 | 0.09 | 64 | 1017.3 |
| 20260502183055 | 45 | 325 | 3.0 | 8.0 | 0.00 | 0.10 | 0.09 | 69 | 1017.4 |
| 20260502181603 | 44 | 323 | 6.0 | 13.0 | 0.00 | 0.10 | 0.09 | 68 | 1017.4 |
| 20260502163100 | 45 | 67 | 2.0 | 9.0 | 0.00 | 0.10 | 0.09 | 68 | 1017.6 |
| 20260502161552 | 43 | 347 | 4.0 | 8.0 | 0.00 | 0.10 | 0.09 | 68 | 1017.7 |
| 20260502151609 | 43 | 355 | 1.0 | 10.0 | 0.01 | 0.10 | 0.09 | 75 | 1017.6 |
| 20260502123057 | 38 | 325 | 2.0 | 6.0 | 0.03 | 0.04 | 0.03 | 81 | 1017.0 |
| 20260502121556 | 37 | 340 | 3.0 | 5.0 | 0.01 | 0.02 | 0.01 | 82 | 1017.0 |
| 20260502114550 | 35 | 342 | 1.0 | 4.0 | 0.00 | 0.01 | 0.00 | 87 | 1016.9 |
| 20260502113102 | 34 | 311 | 0.0 | 2.0 | 0.00 | 0.01 | 0.00 | 91 | 1016.9 |
| 20260502111549 | 33 | 0 | 0.0 | 0.0 | 0.00 | 0.01 | 0.00 | 93 | 1016.8 |
| 20260502110053 | 32 | 0 | 0.0 | 0.0 | 0.00 | 0.01 | 0.00 | 92 | 1016.8 |
| 20260502104557 | 32 | 0 | 0.0 | 0.0 | 0.00 | 0.01 | 0.00 | 92 | 1016.7 |
| 20260502103050 | 32 | 0 | 0.0 | 0.0 | 0.00 | 0.01 | 0.00 | 92 | 1016.7 |
| 20260502101605 | 32 | 0 | 0.0 | 0.0 | 0.00 | 0.01 | 0.00 | 92 | 1016.7 |
| 20260502070111 | 37 | 0 | 0.0 | 1.0 | 0.00 | 0.01 | 0.00 | 92 | 1016.6 |
| 20260502064552 | 37 | 0 | 0.0 | 2.0 | 0.00 | 0.01 | 0.00 | 93 | 1016.7 |
| 20260502063049 | 38 | 0 | 0.0 | 1.0 | 0.00 | 0.01 | 0.00 | 93 | 1016.8 |
| 20260502061547 | 38 | 0 | 0.0 | 1.0 | 0.00 | 0.01 | 0.00 | 93 | 1016.8 |
| 20260502060056 | 38 | 0 | 0.0 | 0.0 | 0.00 | 0.01 | 0.00 | 93 | 1016.7 |
| 20260502054606 | 39 | 0 | 0.0 | 1.0 | 0.00 | 0.01 | 0.00 | 93 | 1017.0 |
| 20260502053057 | 39 | 0 | 0.0 | 0.0 | 0.00 | 0.01 | 0.00 | 93 | 1016.9 |
| 20260502051555 | 39 | 0 | 0.0 | 0.0 | 0.00 | 0.01 | 0.00 | 93 | 1016.9 |
| 20260502050051 | 39 | 0 | 0.0 | 1.0 | 0.00 | 0.01 | 0.00 | 93 | 1017.0 |
| 20260502044550 | 39 | 0 | 0.0 | 0.0 | 0.00 | 0.01 | 0.00 | 93 | 1017.0 |
| 20260502043109 | 39 | 0 | 0.0 | 0.0 | 0.00 | 0.01 | 0.00 | 94 | 1017.0 |
| 20260502041614 | 39 | 0 | 0.0 | 1.0 | 0.00 | 0.01 | 0.00 | 93 | 1017.0 |
| 20260502040057 | 38 | 0 | 0.0 | 1.0 | 0.00 | 0.01 | 0.00 | 93 | 1016.9 |
| 20260502034550 | 38 | 0 | 0.0 | 0.0 | 0.00 | 0.01 | 0.01 | 92 | 1016.8 |
| 20260502033053 | 39 | 0 | 0.0 | 0.0 | 0.00 | 0.01 | 0.01 | 91 | 1016.8 |
| 20260502031551 | 39 | 0 | 0.0 | 0.0 | 0.00 | 0.01 | 0.01 | 91 | 1017.0 |
| 20260502030109 | 40 | 0 | 0.0 | 1.0 | 0.00 | 0.01 | 0.01 | 91 | 1016.9 |
| 20260502024600 | 40 | 0 | 0.0 | 1.0 | 0.00 | 0.01 | 0.01 | 91 | 1017.1 |
| 20260502023125 | 40 | 0 | 0.0 | 1.0 | 0.00 | 0.01 | 0.01 | 90 | 1016.9 |
| 20260502021552 | 41 | 0 | 0.0 | 1.0 | 0.00 | 0.01 | 0.01 | 89 | 1016.8 |
| 20260502020104 | 42 | 0 | 0.0 | 1.0 | 0.00 | 0.01 | 0.01 | 88 | 1016.5 |
| 20260502014606 | 42 | 0 | 0.0 | 4.0 | 0.00 | 0.01 | 0.01 | 87 | 1016.4 |
| 20260502013100 | 42 | 346 | 0.0 | 3.0 | 0.00 | 0.01 | 0.01 | 88 | 1016.4 |
| 20260502011607 | 42 | 0 | 0.0 | 1.0 | 0.00 | 0.01 | 0.01 | 89 | 1015.9 |
| 20260502004558 | 42 | 0 | 0.0 | 1.0 | 0.00 | 0.01 | 0.01 | 85 | 1015.7 |
| 20260502003055 | 43 | 0 | 0.0 | 4.0 | 0.00 | 0.01 | 0.01 | 84 | 1016.1 |
| 20260502001601 | 44 | 5 | 3.0 | 8.0 | 0.00 | 0.01 | 0.01 | 78 | 1016.1 |
| 20260501234556 | 45 | 327 | 2.0 | 5.0 | 0.00 | 0.01 | 0.01 | 75 | 1015.1 |